Time;durP1;ratioP1;P1;durP2;ratioP2;P2;SDS_P1;SDS_P2;PMS_P1;PMS_P2;Temp;Humidity;BMP_temperature;BMP_pressure;BME280_temperature;BME280_humidity;BME280_pressure;Samples;Min_cycle;Max_cycle;Signal;HPM_P1;HPM_P2
2023/04/25 00:02:15;;;;;;;;;;;;;;;12.21;57.33;97597.72;5045232;28;19920;-62
2023/04/25 00:04:41;;;;;;;;;;;;;;;12.00;55.88;97599.25;5027252;28;20015;-62
2023/04/25 00:07:06;;;;;;;;;;;;;;;11.55;56.52;97600.94;5027951;28;19950;-62
2023/04/25 00:09:31;;;;;;;;;;;;;;;11.72;55.04;97588.59;5008429;28;19925;-62
2023/04/25 00:12:01;;;;;;;;;;;;;;;11.79;55.33;97581.72;5012180;28;21160;-62
2023/04/25 00:14:28;;;;;;;;;;;;;;;11.78;56.36;97587.09;5029841;28;19925;-62
2023/04/25 00:16:54;;;;;;;;;;;;;;;11.65;55.75;97593.69;5024251;28;19929;-62
2023/04/25 00:19:19;;;;;;;;;;;;;;;11.69;56.58;97594.16;5026085;28;19917;-62
2023/04/25 00:21:46;;;;;;;;;;;;;;;11.76;55.88;97589.88;5010867;28;20033;-62
2023/04/25 00:24:11;;;;;;;;;;;;;;;11.80;56.64;97596.31;5027941;28;20025;-62
2023/04/25 00:26:37;;;;;;;;;;;;;;;11.60;56.56;97587.41;5041439;28;20859;-63
2023/04/25 00:29:02;;;;;;;;;;;;;;;11.51;57.33;97590.06;5011967;28;20346;-63
2023/04/25 00:31:28;;;;;;;;;;;;;;;11.51;56.73;97589.25;5008123;28;19990;-62
2023/04/25 00:33:54;;;;;;;;;;;;;;;11.51;56.32;97586.66;5027555;28;19927;-62
2023/04/25 00:36:19;;;;;;;;;;;;;;;11.41;57.04;97578.28;5016968;28;20706;-63
2023/04/25 00:38:45;;;;;;;;;;;;;;;11.58;57.37;97584.16;5012422;28;19928;-62
2023/04/25 00:41:12;;;;;;;;;;;;;;;11.62;57.96;97583.63;5030908;28;19921;-62
2023/04/25 00:43:38;;;;;;;;;;;;;;;11.49;58.66;97586.03;5008536;28;19924;-62
2023/04/25 00:46:03;;;;;;;;;;;;;;;11.54;60.09;97579.31;5008141;28;19932;-62
2023/04/25 00:48:31;;;;;;;;;;;;;;;11.66;60.91;97582.31;5045733;28;19931;-62
2023/04/25 00:50:57;;;;;;;;;;;;;;;11.62;60.01;97577.63;5027415;28;19921;-62
2023/04/25 00:53:22;;;;;;;;;;;;;;;11.60;59.65;97583.00;5026705;28;19963;-62
2023/04/25 00:55:50;;;;;;;;;;;;;;;11.62;59.16;97585.44;5026386;28;20700;-62
2023/04/25 00:58:19;;;;;;;;;;;;;;;11.58;59.19;97574.56;5052775;28;19931;-62
2023/04/25 01:00:48;;;;;;;;;;;;;;;11.60;60.51;97577.00;5021185;28;20304;-62
2023/04/25 01:03:15;;;;;;;;;;;;;;;11.55;61.33;97572.28;5041749;28;19917;-62
2023/04/25 01:05:41;;;;;;;;;;;;;;;11.48;61.14;97567.00;5032480;28;19986;-62
2023/04/25 01:08:06;;;;;;;;;;;;;;;11.48;60.36;97563.56;5026321;28;20358;-62
2023/04/25 01:10:32;;;;;;;;;;;;;;;11.49;60.88;97571.22;5044219;28;20784;-62
2023/04/25 01:12:57;;;;;;;;;;;;;;;11.59;62.43;97570.97;5045148;28;19975;-62
2023/04/25 01:15:22;;;;;;;;;;;;;;;11.65;60.23;97564.25;5042119;28;20295;-62
2023/04/25 01:17:50;;;;;;;;;;;;;;;11.58;59.72;97566.75;5051141;28;20371;-62
2023/04/25 01:20:15;;;;;;;;;;;;;;;11.57;62.68;97569.53;5026480;28;19917;-62
2023/04/25 01:22:41;;;;;;;;;;;;;;;11.55;61.24;97580.09;5028077;28;19925;-62
2023/04/25 01:25:06;;;;;;;;;;;;;;;11.51;62.11;97578.84;5007314;28;20008;-62
2023/04/25 01:27:34;;;;;;;;;;;;;;;11.37;61.88;97582.22;5022395;28;20044;-62
2023/04/25 01:30:00;;;;;;;;;;;;;;;11.39;62.80;97582.84;5010329;28;19924;-62
2023/04/25 01:32:25;;;;;;;;;;;;;;;11.40;63.24;97584.47;5044564;28;19927;-62
2023/04/25 01:34:50;;;;;;;;;;;;;;;11.47;62.04;97581.00;5026093;28;19921;-62
2023/04/25 01:37:16;;;;;;;;;;;;;;;11.22;61.86;97580.38;5021757;28;20415;-62
2023/04/25 01:39:41;;;;;;;;;;;;;;;10.95;63.30;97574.72;5025962;28;20465;-62
2023/04/25 01:42:06;;;;;;;;;;;;;;;11.14;63.67;97576.03;5012172;28;20086;-62
2023/04/25 01:44:33;;;;;;;;;;;;;;;11.25;64.09;97574.03;5017671;28;19928;-63
2023/04/25 01:46:58;;;;;;;;;;;;;;;11.28;63.88;97574.47;5030694;28;19933;-62
2023/04/25 01:49:23;;;;;;;;;;;;;;;11.35;63.24;97571.97;5033271;28;19924;-62
2023/04/25 01:51:49;;;;;;;;;;;;;;;11.28;63.24;97577.09;5026995;28;19928;-62
2023/04/25 01:54:14;;;;;;;;;;;;;;;11.24;63.43;97580.19;5013349;28;20103;-62
2023/04/25 01:56:40;;;;;;;;;;;;;;;11.25;61.90;97572.22;5024924;28;20395;-62
2023/04/25 01:59:05;;;;;;;;;;;;;;;11.13;64.86;97579.63;5050253;28;20383;-62
2023/04/25 02:01:30;;;;;;;;;;;;;;;11.14;64.36;97576.03;5020289;28;19979;-62
2023/04/25 02:03:55;;;;;;;;;;;;;;;11.23;63.68;97576.00;5024350;28;20043;-63
2023/04/25 02:06:21;;;;;;;;;;;;;;;11.29;63.61;97573.47;5027276;28;20367;-62
2023/04/25 02:08:48;;;;;;;;;;;;;;;11.24;63.50;97578.41;5010413;28;19991;-62
2023/04/25 02:11:14;;;;;;;;;;;;;;;11.24;65.46;97575.00;5020086;28;20330;-62
2023/04/25 02:13:39;;;;;;;;;;;;;;;11.28;65.94;97565.84;5028406;28;20335;-62
2023/04/25 02:16:04;;;;;;;;;;;;;;;11.14;65.57;97563.03;5018789;28;20659;-61
2023/04/25 02:18:31;;;;;;;;;;;;;;;11.15;66.28;97559.47;5025587;28;19925;-62
2023/04/25 02:20:56;;;;;;;;;;;;;;;11.14;66.57;97554.41;5021534;28;19925;-62
2023/04/25 02:23:24;;;;;;;;;;;;;;;11.14;67.93;97550.00;5011010;28;20276;-62
2023/04/25 02:25:51;;;;;;;;;;;;;;;11.10;69.09;97545.34;5023693;28;19960;-62
2023/04/25 02:28:17;;;;;;;;;;;;;;;11.19;68.83;97548.69;5018847;28;19979;-62
2023/04/25 02:30:42;;;;;;;;;;;;;;;11.26;68.64;97550.44;5008321;28;20011;-62
2023/04/25 02:33:09;;;;;;;;;;;;;;;11.28;68.02;97550.22;5025146;28;19959;-63
2023/04/25 02:35:35;;;;;;;;;;;;;;;11.21;67.46;97557.94;5008778;28;20391;-62
2023/04/25 02:38:02;;;;;;;;;;;;;;;11.07;68.98;97563.91;5027218;28;20002;-62
2023/04/25 02:40:30;;;;;;;;;;;;;;;11.01;67.85;97569.81;5027619;28;19921;-63
2023/04/25 02:42:55;;;;;;;;;;;;;;;10.77;67.76;97576.78;5015106;28;19927;-62
2023/04/25 02:45:21;;;;;;;;;;;;;;;10.54;68.77;97572.31;5008493;28;19917;-62
2023/04/25 02:47:46;;;;;;;;;;;;;;;10.76;68.06;97562.13;5014904;28;19932;-62
2023/04/25 02:50:14;;;;;;;;;;;;;;;10.83;70.96;97573.47;5003228;28;20417;-62
2023/04/25 02:52:39;;;;;;;;;;;;;;;10.89;69.60;97569.38;5026234;28;20543;-62
2023/04/25 02:55:05;;;;;;;;;;;;;;;10.92;69.04;97569.84;5041208;28;19921;-62
2023/04/25 02:57:32;;;;;;;;;;;;;;;10.87;69.13;97573.94;5023279;28;19995;-63
2023/04/25 02:59:58;;;;;;;;;;;;;;;10.86;68.85;97570.53;5026925;28;19928;-63
2023/04/25 03:02:23;;;;;;;;;;;;;;;11.00;70.43;97560.38;5025886;28;19920;-63
2023/04/25 03:04:48;;;;;;;;;;;;;;;10.99;70.81;97556.13;5042802;28;19924;-62
2023/04/25 03:07:14;;;;;;;;;;;;;;;10.86;71.31;97549.75;5038488;28;20357;-62
2023/04/25 03:09:41;;;;;;;;;;;;;;;10.91;70.88;97546.59;5005431;28;19929;-62
2023/04/25 03:12:07;;;;;;;;;;;;;;;10.96;71.63;97547.69;5009034;28;19928;-63
2023/04/25 03:14:32;;;;;;;;;;;;;;;10.92;71.98;97543.84;5011709;28;20470;-62
2023/04/25 03:16:58;;;;;;;;;;;;;;;10.89;71.59;97544.16;5004173;28;19929;-62
2023/04/25 03:19:28;;;;;;;;;;;;;;;10.95;72.04;97543.50;4992572;28;20395;-61
2023/04/25 03:21:53;;;;;;;;;;;;;;;10.87;71.05;97545.34;5022069;28;19925;-62
2023/04/25 03:24:21;;;;;;;;;;;;;;;10.82;70.06;97545.03;5006119;28;20327;-62
2023/04/25 03:26:47;;;;;;;;;;;;;;;10.48;72.07;97549.63;5021372;28;20372;-62
2023/04/25 03:29:12;;;;;;;;;;;;;;;10.31;73.51;97553.25;5008911;28;19929;-62
2023/04/25 03:31:37;;;;;;;;;;;;;;;10.15;73.37;97521.16;5022563;28;20398;-62
2023/04/25 03:34:02;;;;;;;;;;;;;;;10.15;73.13;97549.72;4995057;28;19925;-62
2023/04/25 03:36:28;;;;;;;;;;;;;;;10.34;73.88;97551.13;4988972;28;20337;-62
2023/04/25 03:38:53;;;;;;;;;;;;;;;10.39;75.13;97556.63;5006551;28;19928;-62
2023/04/25 03:41:18;;;;;;;;;;;;;;;10.41;74.49;97551.28;5004582;28;19932;-61
2023/04/25 03:43:44;;;;;;;;;;;;;;;10.37;72.79;97545.59;5022903;28;19936;-62
2023/04/25 03:46:09;;;;;;;;;;;;;;;10.30;75.20;97536.84;5009652;28;20588;-62
2023/04/25 03:48:34;;;;;;;;;;;;;;;10.38;76.04;97539.41;5031096;28;19968;-63
2023/04/25 03:51:00;;;;;;;;;;;;;;;10.37;76.37;97539.59;5023938;28;19925;-62
2023/04/25 03:53:25;;;;;;;;;;;;;;;10.27;76.00;97538.97;5023501;28;19925;-62
2023/04/25 03:55:50;;;;;;;;;;;;;;;10.30;77.24;97544.63;5010243;28;19937;-63
2023/04/25 03:58:15;;;;;;;;;;;;;;;10.27;78.57;97541.56;4988341;28;19921;-61
2023/04/25 04:00:41;;;;;;;;;;;;;;;10.08;77.38;97551.38;5009420;28;19922;-61
2023/04/25 04:03:06;;;;;;;;;;;;;;;9.89;78.03;97551.72;5005239;28;20458;-62
2023/04/25 04:05:32;;;;;;;;;;;;;;;9.96;77.87;97552.69;4992676;28;19917;-62
2023/04/25 04:08:02;;;;;;;;;;;;;;;10.09;78.68;97557.38;5011891;28;19925;-62
2023/04/25 04:10:30;;;;;;;;;;;;;;;10.01;77.63;97550.41;5025237;28;20418;-62
2023/04/25 04:12:56;;;;;;;;;;;;;;;9.86;77.33;97541.69;5026205;28;19932;-62
2023/04/25 04:15:21;;;;;;;;;;;;;;;9.78;77.53;97545.94;5026779;28;19936;-62
2023/04/25 04:17:47;;;;;;;;;;;;;;;9.85;79.55;97546.06;5025706;28;20548;-62
2023/04/25 04:20:15;;;;;;;;;;;;;;;9.78;79.75;97547.69;5044631;28;19994;-62
2023/04/25 04:22:40;;;;;;;;;;;;;;;9.80;79.58;97553.53;5044087;28;20289;-63
2023/04/25 04:25:06;;;;;;;;;;;;;;;9.81;78.50;97540.38;5031337;28;20022;-63
2023/04/25 04:27:31;;;;;;;;;;;;;;;9.80;77.81;97538.78;5025321;28;20422;-62
2023/04/25 04:29:57;;;;;;;;;;;;;;;9.77;78.56;97548.69;5041547;28;20409;-62
2023/04/25 04:32:25;;;;;;;;;;;;;;;9.79;79.53;97550.13;5043250;28;20282;-63
2023/04/25 04:34:50;;;;;;;;;;;;;;;9.69;80.07;97551.28;5010833;28;20015;-62
2023/04/25 04:37:16;;;;;;;;;;;;;;;9.74;81.58;97560.19;5040495;28;20027;-62
2023/04/25 04:39:41;;;;;;;;;;;;;;;9.75;80.04;97561.84;5027847;28;19999;-62
2023/04/25 04:42:06;;;;;;;;;;;;;;;9.74;79.98;97564.59;5029630;28;20035;-62
2023/04/25 04:44:32;;;;;;;;;;;;;;;9.79;79.73;97563.13;5029076;28;19925;-62
2023/04/25 04:46:58;;;;;;;;;;;;;;;9.72;79.63;97569.94;5012018;28;21468;-62
2023/04/25 04:49:23;;;;;;;;;;;;;;;9.61;80.67;97572.88;5028939;28;19921;-63
2023/04/25 04:51:49;;;;;;;;;;;;;;;9.37;81.47;97571.91;5028471;28;20381;-63
2023/04/25 04:54:17;;;;;;;;;;;;;;;9.38;81.92;97570.97;5043310;28;19933;-63
2023/04/25 04:56:45;;;;;;;;;;;;;;;9.43;82.74;97571.25;5024640;28;20191;-61
2023/04/25 04:59:10;;;;;;;;;;;;;;;9.43;82.08;97575.63;5023712;28;19929;-62
2023/04/25 05:01:36;;;;;;;;;;;;;;;9.51;81.08;97580.84;5010245;28;19921;-61
2023/04/25 05:04:03;;;;;;;;;;;;;;;9.58;82.44;97575.78;5009450;28;20003;-62
2023/04/25 05:06:31;;;;;;;;;;;;;;;9.56;81.25;97570.75;5025970;28;20281;-61
2023/04/25 05:08:56;;;;;;;;;;;;;;;9.46;81.49;97574.53;5008351;28;20055;-62
2023/04/25 05:11:22;;;;;;;;;;;;;;;9.57;82.29;97576.78;5028904;28;20060;-62
2023/04/25 05:13:49;;;;;;;;;;;;;;;9.59;82.03;97570.44;5042962;28;19936;-62
2023/04/25 05:16:15;;;;;;;;;;;;;;;9.53;82.75;97571.09;5026369;28;19925;-62
2023/04/25 05:18:40;;;;;;;;;;;;;;;9.51;80.20;97577.41;5011964;28;20551;-63
2023/04/25 05:21:05;;;;;;;;;;;;;;;9.54;83.08;97582.28;5008650;28;19925;-64
2023/04/25 05:23:31;;;;;;;;;;;;;;;9.59;82.52;97575.63;5043449;28;19929;-63
2023/04/25 05:25:57;;;;;;;;;;;;;;;9.50;83.49;97578.41;5040206;28;20078;-63
2023/04/25 05:28:22;;;;;;;;;;;;;;;9.44;82.21;97572.09;5029295;28;20016;-63
2023/04/25 05:30:47;;;;;;;;;;;;;;;9.53;81.77;97580.69;5008501;28;20283;-64
2023/04/25 05:33:13;;;;;;;;;;;;;;;9.52;83.17;97582.44;5027916;28;19928;-63
2023/04/25 05:35:40;;;;;;;;;;;;;;;9.61;81.76;97589.25;5025887;28;20290;-63
2023/04/25 05:38:08;;;;;;;;;;;;;;;9.41;81.30;97593.97;5028595;28;19925;-61
2023/04/25 05:40:33;;;;;;;;;;;;;;;9.35;82.01;97592.03;5020936;28;19947;-62
2023/04/25 05:42:59;;;;;;;;;;;;;;;9.09;81.83;97557.63;5022562;28;20375;-62
2023/04/25 05:45:25;;;;;;;;;;;;;;;9.32;82.66;97594.94;5026153;28;20527;-62
2023/04/25 05:47:52;;;;;;;;;;;;;;;9.34;82.26;97590.38;5027583;28;19940;-63
2023/04/25 05:50:18;;;;;;;;;;;;;;;9.37;82.58;97591.88;5026888;28;19924;-62
2023/04/25 05:52:43;;;;;;;;;;;;;;;9.28;82.20;97596.22;5012301;28;19929;-63
2023/04/25 05:55:11;;;;;;;;;;;;;;;9.47;82.29;97596.88;5013702;28;20387;-62
2023/04/25 05:57:36;;;;;;;;;;;;;;;9.46;83.12;97593.50;5021544;28;19932;-62
2023/04/25 06:00:01;;;;;;;;;;;;;;;9.38;83.83;97601.25;5018128;28;19937;-62
2023/04/25 06:02:27;;;;;;;;;;;;;;;9.33;83.27;97606.16;5009739;28;19979;-63
2023/04/25 06:04:52;;;;;;;;;;;;;;;9.27;83.79;97606.75;5009356;28;19993;-62
2023/04/25 06:07:18;;;;;;;;;;;;;;;9.28;82.83;97601.44;5030895;28;19955;-63
2023/04/25 06:09:43;;;;;;;;;;;;;;;9.46;82.66;97608.25;5024219;28;20597;-62
2023/04/25 06:12:11;;;;;;;;;;;;;;;9.46;82.22;97603.06;5022853;28;20455;-62
2023/04/25 06:14:36;;;;;;;;;;;;;;;9.46;81.56;97608.25;4986649;28;20354;-63
2023/04/25 06:17:06;;;;;;;;;;;;;;;9.46;81.87;97598.69;5005386;28;20343;-62
2023/04/25 06:19:35;;;;;;;;;;;;;;;9.52;82.40;97602.41;5005382;28;20015;-62
2023/04/25 06:22:00;;;;;;;;;;;;;;;9.49;82.22;97595.78;4987272;28;21086;-62
2023/04/25 06:24:25;;;;;;;;;;;;;;;9.56;82.06;97595.91;4987785;28;19956;-63
2023/04/25 06:26:51;;;;;;;;;;;;;;;9.49;84.16;97592.34;5013724;28;20399;-63
2023/04/25 06:29:16;;;;;;;;;;;;;;;9.49;83.90;97594.94;5004621;28;19920;-62
2023/04/25 06:31:44;;;;;;;;;;;;;;;9.49;84.48;97594.94;5006596;28;20071;-62
2023/04/25 06:34:09;;;;;;;;;;;;;;;9.38;83.64;97590.88;4991485;28;19921;-62
2023/04/25 06:36:34;;;;;;;;;;;;;;;9.43;83.83;97597.19;5000081;28;19925;-62
2023/04/25 06:39:00;;;;;;;;;;;;;;;9.52;82.58;97590.22;4992494;28;19924;-62
2023/04/25 06:41:25;;;;;;;;;;;;;;;9.67;83.94;97587.78;5003157;28;19917;-62
2023/04/25 06:43:50;;;;;;;;;;;;;;;9.74;84.08;97585.34;5002018;28;19917;-62
2023/04/25 06:46:15;;;;;;;;;;;;;;;9.70;83.49;97587.47;5018630;28;19928;-62
2023/04/25 06:48:41;;;;;;;;;;;;;;;9.72;84.02;97584.72;4992730;28;19921;-62
2023/04/25 06:51:06;;;;;;;;;;;;;;;9.81;82.99;97587.13;4998847;28;20372;-62
2023/04/25 06:53:31;;;;;;;;;;;;;;;9.74;84.21;97583.56;5002462;28;19925;-62
2023/04/25 06:55:56;;;;;;;;;;;;;;;9.77;84.69;97585.03;4996113;28;19922;-62
2023/04/25 06:58:26;;;;;;;;;;;;;;;9.78;84.31;97582.28;5003887;28;19921;-62
2023/04/25 07:00:51;;;;;;;;;;;;;;;9.71;86.50;97583.06;5008499;28;20480;-62
2023/04/25 07:03:16;;;;;;;;;;;;;;;9.57;86.15;97580.19;4992404;28;19925;-62
2023/04/25 07:05:41;;;;;;;;;;;;;;;9.51;87.10;97583.44;5006405;28;19925;-62
2023/04/25 07:08:09;;;;;;;;;;;;;;;9.59;86.69;97580.03;5008096;28;20268;-62
2023/04/25 07:10:34;;;;;;;;;;;;;;;9.39;86.54;97571.75;5042779;28;19951;-62
2023/04/25 07:13:00;;;;;;;;;;;;;;;9.44;87.82;97579.88;5010137;28;20015;-62
2023/04/25 07:15:25;;;;;;;;;;;;;;;9.35;89.43;97592.03;5026311;28;19920;-61
2023/04/25 07:17:53;;;;;;;;;;;;;;;9.25;89.86;97591.38;5026549;28;20303;-62
2023/04/25 07:20:18;;;;;;;;;;;;;;;9.15;91.29;97585.53;5006625;28;19921;-62
2023/04/25 07:22:44;;;;;;;;;;;;;;;9.21;93.53;97574.50;5021638;28;19928;-61
2023/04/25 07:25:09;;;;;;;;;;;;;;;9.34;92.20;97574.81;5025113;28;20722;-61
2023/04/25 07:27:34;;;;;;;;;;;;;;;9.50;89.45;97574.03;5025998;28;19920;-61
2023/04/25 07:30:00;;;;;;;;;;;;;;;9.62;89.52;97577.09;5010805;28;19929;-61
2023/04/25 07:32:25;;;;;;;;;;;;;;;9.69;90.37;97572.88;5022578;28;19921;-62
2023/04/25 07:34:51;;;;;;;;;;;;;;;9.65;86.98;97579.34;5009724;28;20326;-62
2023/04/25 07:37:18;;;;;;;;;;;;;;;9.74;87.50;97587.94;5025515;28;19928;-61
2023/04/25 07:39:46;;;;;;;;;;;;;;;9.81;87.30;97581.94;5023739;28;19921;-61
2023/04/25 07:42:14;;;;;;;;;;;;;;;9.76;86.65;97578.22;5027046;28;19921;-62
2023/04/25 07:44:40;;;;;;;;;;;;;;;9.88;86.49;97571.72;5023510;28;19927;-62
2023/04/25 07:47:13;;;;;;;;;;;;;;;10.01;81.53;97573.78;5010425;28;19940;-61
2023/04/25 07:49:38;;;;;;;;;;;;;;;10.16;82.24;97563.50;5025262;28;20004;-61
2023/04/25 07:52:06;;;;;;;;;;;;;;;10.28;84.54;97563.97;5026458;28;20003;-62
2023/04/25 07:54:32;;;;;;;;;;;;;;;10.20;79.96;97560.44;5024276;28;20576;-62
2023/04/25 07:57:00;;;;;;;;;;;;;;;10.33;81.59;97557.31;5024494;28;19929;-62
2023/04/25 07:59:25;;;;;;;;;;;;;;;10.29;83.07;97561.19;5026340;28;20406;-62
2023/04/25 08:01:50;;;;;;;;;;;;;;;10.27;77.15;97557.94;5026500;28;19920;-62
2023/04/25 08:04:16;;;;;;;;;;;;;;;10.32;80.58;97553.09;5012663;28;20391;-62
2023/04/25 08:06:41;;;;;;;;;;;;;;;10.46;78.21;97553.34;5027755;28;19932;-62
2023/04/25 08:09:09;;;;;;;;;;;;;;;10.47;82.67;97545.38;5028935;28;20028;-62
2023/04/25 08:11:36;;;;;;;;;;;;;;;10.55;80.99;97555.75;5047069;28;19920;-62
2023/04/25 08:14:02;;;;;;;;;;;;;;;10.54;82.37;97542.94;5013261;28;19920;-62
2023/04/25 08:16:27;;;;;;;;;;;;;;;10.92;83.28;97551.63;5027070;28;20395;-62
2023/04/25 08:18:55;;;;;;;;;;;;;;;12.65;75.74;97542.94;5046874;28;19928;-62
2023/04/25 08:21:22;;;;;;;;;;;;;;;14.32;66.56;97536.41;5033779;28;20562;-62
2023/04/25 08:23:48;;;;;;;;;;;;;;;15.66;59.91;97549.75;5027229;28;20379;-62
2023/04/25 08:26:13;;;;;;;;;;;;;;;16.52;56.88;97546.16;5011388;28;19924;-61
2023/04/25 08:28:38;;;;;;;;;;;;;;;17.60;52.93;97547.09;5012683;28;20279;-62
2023/04/25 08:31:06;;;;;;;;;;;;;;;18.29;51.08;97547.84;5026007;28;20071;-62
2023/04/25 08:33:34;;;;;;;;;;;;;;;18.59;48.56;97555.78;5028440;28;20011;-61
2023/04/25 08:36:02;;;;;;;;;;;;;;;19.25;46.39;97557.75;5010766;28;20395;-62
2023/04/25 08:38:27;;;;;;;;;;;;;;;19.46;45.10;97565.13;5021662;28;19916;-62
2023/04/25 08:40:52;;;;;;;;;;;;;;;20.13;43.52;97564.81;5047164;28;20303;-61
2023/04/25 08:43:18;;;;;;;;;;;;;;;19.58;44.11;97565.91;5023884;28;19924;-62
2023/04/25 08:45:46;;;;;;;;;;;;;;;20.19;43.12;97567.53;5018636;28;19925;-61
2023/04/25 08:48:15;;;;;;;;;;;;;;;20.59;42.27;97564.13;5020769;28;19978;-62
2023/04/25 08:50:51;;;;;;;;;;;;;;;20.38;43.45;97558.44;5002210;28;20491;-62
2023/04/25 08:53:18;;;;;;;;;;;;;;;20.02;41.62;97555.06;5033214;28;19924;-62
2023/04/25 08:55:43;;;;;;;;;;;;;;;19.97;42.34;97547.84;5017021;28;19925;-62
2023/04/25 08:58:09;;;;;;;;;;;;;;;20.54;41.58;97539.22;4998810;28;20296;-62
2023/04/25 09:00:35;;;;;;;;;;;;;;;20.15;41.92;97552.19;5035992;28;19924;-62
2023/04/25 09:03:00;;;;;;;;;;;;;;;19.90;42.41;97549.00;5000950;28;20389;-62
2023/04/25 09:05:28;;;;;;;;;;;;;;;19.36;44.12;97543.78;5001766;28;19921;-62
2023/04/25 09:07:53;;;;;;;;;;;;;;;18.57;46.34;97542.03;5000514;28;19932;-65
2023/04/25 09:10:19;;;;;;;;;;;;;;;17.80;47.25;97537.19;4996504;28;19991;-62
2023/04/25 09:12:44;;;;;;;;;;;;;;;17.11;49.05;97533.72;4984026;28;20368;-62
2023/04/25 09:15:10;;;;;;;;;;;;;;;16.99;49.79;97530.97;5016561;28;20022;-62
2023/04/25 09:17:40;;;;;;;;;;;;;;;16.79;51.12;97540.75;4987518;28;21280;-62
2023/04/25 09:20:08;;;;;;;;;;;;;;;16.67;49.67;97538.00;4980391;28;19936;-62
2023/04/25 09:22:34;;;;;;;;;;;;;;;16.61;49.73;97542.28;5007353;28;19925;-62
2023/04/25 09:25:02;;;;;;;;;;;;;;;16.36;48.85;97534.28;4999112;28;19928;-62
2023/04/25 09:27:29;;;;;;;;;;;;;;;16.17;49.97;97549.06;4982113;28;19929;-62
2023/04/25 09:30:01;;;;;;;;;;;;;;;16.23;48.43;97542.22;4999907;28;20356;-62
2023/04/25 09:32:26;;;;;;;;;;;;;;;16.07;49.70;97541.66;4981396;28;19925;-62
2023/04/25 09:34:53;;;;;;;;;;;;;;;15.95;48.91;97546.72;4997832;28;20357;-62
2023/04/25 09:37:28;;;;;;;;;;;;;;;15.94;51.18;97544.31;4982347;28;19921;-61
2023/04/25 09:39:54;;;;;;;;;;;;;;;15.94;51.03;97552.97;5010111;28;21326;-62
2023/04/25 09:42:26;;;;;;;;;;;;;;;15.98;51.21;97548.13;4980188;28;20411;-62
2023/04/25 09:44:53;;;;;;;;;;;;;;;16.42;49.89;97543.16;4979727;28;20009;-62
2023/04/25 09:47:21;;;;;;;;;;;;;;;16.25;49.43;97543.63;4999726;28;19921;-62
2023/04/25 09:49:46;;;;;;;;;;;;;;;16.34;52.41;97547.63;4979863;28;19925;-63
2023/04/25 09:52:15;;;;;;;;;;;;;;;16.17;51.23;97549.06;5016273;28;20349;-62
2023/04/25 09:54:41;;;;;;;;;;;;;;;16.21;51.84;97538.97;5015003;28;20244;-61
2023/04/25 09:57:19;;;;;;;;;;;;;;;16.22;50.70;97541.41;4987933;28;19921;-62
2023/04/25 09:59:52;;;;;;;;;;;;;;;16.21;51.06;97538.97;5016700;28;19932;-62
2023/04/25 10:02:21;;;;;;;;;;;;;;;16.17;50.08;97549.06;4995102;28;19924;-62
2023/04/25 10:04:48;;;;;;;;;;;;;;;16.47;46.33;97543.34;4979152;28;20283;-61
2023/04/25 10:10:25;;;;;;;;;;;;;;;16.22;47.26;97544.03;5025686;28;23644;-61
2023/04/25 10:12:51;;;;;;;;;;;;;;;15.98;47.83;97523.72;5013955;28;19932;-62
2023/04/25 10:15:16;;;;;;;;;;;;;;;16.20;50.21;97540.81;4998077;28;19928;-62
2023/04/25 10:17:42;;;;;;;;;;;;;;;16.30;49.41;97538.56;5015983;28;19987;-62
2023/04/25 10:20:10;;;;;;;;;;;;;;;16.31;50.02;97534.09;5012973;28;20482;-62
2023/04/25 10:22:37;;;;;;;;;;;;;;;16.37;52.36;97537.72;5015089;28;20102;-62
2023/04/25 10:25:05;;;;;;;;;;;;;;;16.24;51.18;97534.13;4999703;28;20500;-62
2023/04/25 10:27:31;;;;;;;;;;;;;;;16.37;51.83;97532.47;5003642;28;19929;-62
2023/04/25 10:30:11;;;;;;;;;;;;;;;16.75;49.36;97529.06;5001074;28;20458;-63
2023/04/25 10:32:36;;;;;;;;;;;;;;;16.48;48.59;97497.72;5010088;28;19925;-62
2023/04/25 10:35:10;;;;;;;;;;;;;;;16.40;49.09;97529.44;5016667;28;19924;-62
2023/04/25 10:37:36;;;;;;;;;;;;;;;16.27;49.07;97535.53;5032083;28;20137;-62
2023/04/25 10:40:08;;;;;;;;;;;;;;;16.40;47.51;97532.06;5016581;28;20411;-62
2023/04/25 10:42:33;;;;;;;;;;;;;;;16.34;48.48;97528.47;4999540;28;20372;-63
2023/04/25 10:45:03;;;;;;;;;;;;;;;16.28;50.40;97539.75;4999099;28;19968;-62
2023/04/25 10:47:35;;;;;;;;;;;;;;;16.18;50.32;97534.16;4995418;28;20411;-62
2023/04/25 10:50:08;;;;;;;;;;;;;;;16.26;50.51;97529.50;5001989;28;19964;-63
2023/04/25 10:52:33;;;;;;;;;;;;;;;16.28;51.02;97529.28;4986370;28;20379;-62
2023/04/25 10:55:01;;;;;;;;;;;;;;;16.44;50.96;97533.25;4999947;28;20014;-62
2023/04/25 10:57:36;;;;;;;;;;;;;;;16.48;51.21;97530.00;5025383;28;20232;-62
2023/04/25 11:00:11;;;;;;;;;;;;;;;16.61;51.46;97523.91;5016231;28;20004;-62
2023/04/25 11:02:53;;;;;;;;;;;;;;;16.71;50.53;97526.84;5006225;28;19990;-62
2023/04/25 11:05:21;;;;;;;;;;;;;;;16.62;47.99;97538.63;5039219;28;19925;-63
2023/04/25 11:07:51;;;;;;;;;;;;;;;16.56;44.44;97541.28;5021753;28;19925;-62
2023/04/25 11:10:16;;;;;;;;;;;;;;;16.46;45.32;97544.34;5025097;28;19924;-62
2023/04/25 11:12:42;;;;;;;;;;;;;;;16.44;44.76;97541.13;5023128;28;19931;-62
2023/04/25 11:15:07;;;;;;;;;;;;;;;16.39;49.60;97539.13;5025791;28;19921;-62
2023/04/25 11:17:33;;;;;;;;;;;;;;;16.49;49.96;97536.06;5023263;28;20221;-63
2023/04/25 11:19:59;;;;;;;;;;;;;;;16.69;51.73;97536.75;5042991;28;19920;-62
2023/04/25 11:22:24;;;;;;;;;;;;;;;16.69;48.23;97547.25;5023903;28;19921;-62
2023/04/25 11:24:50;;;;;;;;;;;;;;;16.72;42.62;97565.22;5027507;28;19920;-62
2023/04/25 11:27:16;;;;;;;;;;;;;;;16.10;42.31;97585.03;5041853;28;19925;-61
2023/04/25 11:29:41;;;;;;;;;;;;;;;15.63;45.42;97594.72;5025973;28;19921;-61
2023/04/25 11:32:06;;;;;;;;;;;;;;;15.28;44.01;97587.03;5041975;28;19921;-62
2023/04/25 11:34:32;;;;;;;;;;;;;;;15.15;43.34;97575.53;5026473;28;20369;-62
2023/04/25 11:36:58;;;;;;;;;;;;;;;15.07;47.70;97570.47;5030979;28;19925;-62
2023/04/25 11:39:23;;;;;;;;;;;;;;;15.20;46.62;97567.06;5008114;28;19971;-61
2023/04/25 11:41:49;;;;;;;;;;;;;;;15.31;45.65;97570.91;5024226;28;20438;-61
2023/04/25 11:44:18;;;;;;;;;;;;;;;15.29;47.23;97572.94;5028142;28;19940;-62
2023/04/25 11:46:44;;;;;;;;;;;;;;;15.45;45.50;97569.13;5027042;28;20044;-62
2023/04/25 11:49:09;;;;;;;;;;;;;;;15.51;47.21;97574.34;5029608;28;20039;-62
2023/04/25 11:51:44;;;;;;;;;;;;;;;15.74;43.85;97560.88;5026365;28;20668;-62
2023/04/25 11:54:10;;;;;;;;;;;;;;;15.86;43.85;97570.72;5028563;28;20434;-63
2023/04/25 11:56:35;;;;;;;;;;;;;;;15.74;42.90;97557.44;5025848;28;19928;-62
2023/04/25 11:59:01;;;;;;;;;;;;;;;15.71;43.72;97558.59;5047575;28;19925;-62
2023/04/25 12:01:28;;;;;;;;;;;;;;;15.76;42.86;97558.03;5028190;28;20477;-61
2023/04/25 12:03:53;;;;;;;;;;;;;;;15.80;40.42;97554.00;5030901;28;20027;-60
2023/04/25 12:06:18;;;;;;;;;;;;;;;15.91;41.30;97560.44;5042074;28;20054;-59
2023/04/25 12:09:04;;;;;;;;;;;;;;;15.93;41.45;97558.41;5045311;28;19924;-59
2023/04/25 12:11:33;;;;;;;;;;;;;;;16.09;39.50;97557.19;5013508;28;19952;-59
2023/04/25 12:14:01;;;;;;;;;;;;;;;16.05;40.09;97556.78;5022568;28;19921;-60
2023/04/25 12:16:30;;;;;;;;;;;;;;;16.05;39.25;97548.91;5044396;28;19925;-60
2023/04/25 12:18:56;;;;;;;;;;;;;;;16.23;39.95;97547.47;5028305;28;20656;-60
2023/04/25 12:21:21;;;;;;;;;;;;;;;16.26;41.06;97549.66;5026232;28;19932;-60
2023/04/25 12:23:47;;;;;;;;;;;;;;;16.30;35.57;97549.06;5042493;28;19964;-59
2023/04/25 12:26:12;;;;;;;;;;;;;;;16.30;37.29;97540.34;5039568;28;19950;-59
2023/04/25 12:28:37;;;;;;;;;;;;;;;16.42;36.32;97540.53;5043695;28;19931;-59
2023/04/25 12:31:04;;;;;;;;;;;;;;;16.44;38.02;97536.66;5041817;28;19978;-59
2023/04/25 12:33:33;;;;;;;;;;;;;;;16.58;33.68;97540.06;5031945;28;20024;-59
2023/04/25 12:35:58;;;;;;;;;;;;;;;16.80;35.67;97518.75;5024872;28;19966;-60
2023/04/25 12:38:23;;;;;;;;;;;;;;;16.81;33.60;97517.72;5032695;28;19925;-60
2023/04/25 12:40:49;;;;;;;;;;;;;;;16.79;33.98;97509.25;5044355;28;19921;-60
2023/04/25 12:43:14;;;;;;;;;;;;;;;16.90;34.90;97503.34;5044279;28;20592;-59
2023/04/25 12:45:39;;;;;;;;;;;;;;;17.04;34.74;97502.25;5009208;28;19921;-60
2023/04/25 12:48:05;;;;;;;;;;;;;;;16.95;33.87;97510.59;5027543;28;19921;-60
2023/04/25 12:50:30;;;;;;;;;;;;;;;17.08;34.05;97494.75;5043598;28;19921;-60